Time;durP1;ratioP1;P1;durP2;ratioP2;P2;SDS_P1;SDS_P2;PMS_P1;PMS_P2;Temp;Humidity;BMP_temperature;BMP_pressure;BME280_temperature;BME280_humidity;BME280_pressure;Samples;Min_cycle;Max_cycle;Signal;HPM_P1;HPM_P2
2021/11/30 06:16:20;;;;;;;20.13;7.85;;;;;;;-0.41;83.62;99005.44;4984781;28;106039;-70
2021/11/30 06:18:46;;;;;;;13.00;7.38;;;;;;;-0.45;83.54;99002.25;4986022;28;106165;-71
2021/11/30 06:21:13;;;;;;;18.55;8.90;;;;;;;-0.47;83.92;99012.00;4985181;28;106264;-71
2021/11/30 06:23:40;;;;;;;16.83;8.95;;;;;;;-0.48;83.76;99009.53;4985066;28;105906;-73
2021/11/30 06:26:10;;;;;;;20.55;9.07;;;;;;;-0.49;83.45;99007.88;4985151;28;106249;-71
2021/11/30 06:28:36;;;;;;;17.63;9.70;;;;;;;-0.50;83.67;99001.00;4985666;28;105875;-72
2021/11/30 06:31:03;;;;;;;28.00;13.85;;;;;;;-0.45;84.29;98999.66;4985469;28;105850;-70
2021/11/30 06:33:29;;;;;;;28.10;16.45;;;;;;;-0.39;84.15;98996.50;4983933;28;106093;-71
2021/11/30 06:35:55;;;;;;;28.92;15.85;;;;;;;-0.30;84.58;99002.75;4984271;28;106050;-71
2021/11/30 06:38:21;;;;;;;34.85;18.95;;;;;;;-0.21;84.31;98995.91;4985062;28;105904;-70
2021/11/30 06:40:46;;;;;;;31.40;18.30;;;;;;;-0.11;84.94;98994.16;4984405;28;105921;-69
2021/11/30 06:43:11;;;;;;;18.27;9.90;;;;;;;-0.06;84.29;98993.75;4983834;28;106011;-70
2021/11/30 06:45:37;;;;;;;16.27;9.10;;;;;;;0.01;84.43;98994.06;4984678;28;105949;-70
2021/11/30 06:48:03;;;;;;;17.15;9.80;;;;;;;0.06;84.62;98989.28;4985533;28;105935;-71
2021/11/30 06:50:29;;;;;;;68.13;24.27;;;;;;;0.10;84.58;98993.28;4985062;28;106453;-72
2021/11/30 06:52:54;;;;;;;94.45;29.15;;;;;;;0.15;84.44;98983.22;4983831;28;106706;-72
2021/11/30 06:55:20;;;;;;;47.10;16.63;;;;;;;0.19;84.53;98976.75;4983804;28;106095;-69
2021/11/30 06:57:46;;;;;;;22.48;9.68;;;;;;;0.21;84.55;98974.84;4984585;28;106010;-72
2021/11/30 07:00:13;;;;;;;18.08;10.27;;;;;;;0.20;84.13;98974.97;4984696;28;106142;-71
2021/11/30 07:02:38;;;;;;;14.60;9.07;;;;;;;0.22;84.40;98968.66;4983021;28;107403;-77
2021/11/30 07:05:30;;;;;;;16.70;9.07;;;;;;;0.20;84.12;98957.47;4984010;28;106000;-72
2021/11/30 07:08:16;;;;;;;10.40;5.78;;;;;;;0.23;84.17;98962.41;4984963;28;105989;-75
2021/11/30 07:10:51;;;;;;;13.55;6.28;;;;;;;0.30;84.29;98952.25;4984073;28;106202;-72
2021/11/30 07:13:23;;;;;;;11.35;7.80;;;;;;;0.36;84.24;98941.22;4983476;28;106650;-76
2021/11/30 07:15:57;;;;;;;13.63;8.13;;;;;;;0.44;84.05;98940.56;4983461;28;106076;-80
2021/11/30 07:18:23;;;;;;;9.45;6.72;;;;;;;0.50;83.86;98945.25;4985307;28;106075;-73
2021/11/30 07:20:50;;;;;;;15.82;9.18;;;;;;;0.54;83.63;98933.53;4984124;28;106250;-74
2021/11/30 07:23:16;;;;;;;10.55;5.90;;;;;;;0.57;83.64;98933.25;4983880;28;106644;-73
2021/11/30 07:25:42;;;;;;;14.32;9.73;;;;;;;0.59;83.19;98930.47;4981634;28;106088;-76
2021/11/30 07:28:08;;;;;;;15.73;8.60;;;;;;;0.61;83.29;98918.09;4971881;28;105988;-74
2021/11/30 07:30:34;;;;;;;14.50;7.82;;;;;;;0.59;83.31;98912.13;4970846;28;106266;-79
2021/11/30 07:33:00;;;;;;;9.40;5.97;;;;;;;0.60;83.28;98916.41;4971024;28;106024;-77
2021/11/30 07:35:26;;;;;;;11.50;6.55;;;;;;;0.59;82.98;98918.22;4970436;28;106502;-78
2021/11/30 07:37:52;;;;;;;15.50;7.95;;;;;;;0.58;82.78;98895.59;4971915;28;106083;-77
2021/11/30 07:40:18;;;;;;;14.55;7.78;;;;;;;0.64;82.68;98895.06;4964620;28;106183;-74
2021/11/30 07:42:44;;;;;;;11.77;7.55;;;;;;;0.70;83.12;98890.19;4959645;28;106159;-71
2021/11/30 07:45:12;;;;;;;14.93;9.18;;;;;;;0.76;82.99;98887.84;4965333;28;106423;-74
2021/11/30 07:47:38;;;;;;;10.35;7.65;;;;;;;0.79;82.88;98884.13;4971464;28;106008;-75
2021/11/30 07:50:05;;;;;;;12.35;8.35;;;;;;;0.84;82.75;98871.44;4971395;28;105843;-73
2021/11/30 07:52:36;;;;;;;13.15;8.63;;;;;;;0.91;82.67;98874.31;4970850;28;106043;-72
2021/11/30 07:55:04;;;;;;;17.55;8.48;;;;;;;0.99;82.75;98883.13;4971237;28;106125;-77
2021/11/30 07:57:30;;;;;;;12.13;7.13;;;;;;;1.05;82.34;98878.31;4971548;28;105951;-73
2021/11/30 07:59:55;;;;;;;9.05;5.70;;;;;;;1.03;81.96;98875.00;4970770;28;105872;-70
2021/11/30 08:02:21;;;;;;;13.75;7.57;;;;;;;1.03;82.04;98859.28;4969927;28;106435;-76
2021/11/30 08:04:49;;;;;;;11.40;6.47;;;;;;;1.06;81.90;98856.34;4968611;28;106036;-73
2021/11/30 08:07:16;;;;;;;5.63;4.38;;;;;;;1.17;82.12;98853.56;4970967;28;105897;-81
2021/11/30 08:09:42;;;;;;;12.23;6.78;;;;;;;1.18;81.81;98847.34;4970485;28;106259;-78
2021/11/30 08:12:07;;;;;;;10.02;6.07;;;;;;;1.15;81.50;98845.84;4969478;28;106398;-76
2021/11/30 08:14:33;;;;;;;12.52;7.57;;;;;;;1.14;81.49;98835.50;4969622;28;106057;-78
2021/11/30 08:16:59;;;;;;;9.20;6.00;;;;;;;1.12;81.42;98832.16;4969065;28;106441;-77
2021/11/30 08:19:24;;;;;;;10.60;6.45;;;;;;;1.16;81.33;98829.13;4967651;28;106244;-76
2021/11/30 08:21:50;;;;;;;15.43;7.88;;;;;;;1.30;81.55;98824.38;4967822;28;106937;-70
2021/11/30 08:24:16;;;;;;;8.40;6.25;;;;;;;1.46;81.19;98808.84;4968863;28;106202;-76
2021/11/30 08:26:42;;;;;;;9.18;5.72;;;;;;;1.51;80.60;98805.78;4970537;28;105901;-70
2021/11/30 08:29:07;;;;;;;8.82;5.10;;;;;;;1.49;80.55;98805.09;4969657;28;105802;-71
2021/11/30 08:31:33;;;;;;;12.20;5.63;;;;;;;1.45;80.41;98795.84;4969449;28;106129;-73
2021/11/30 08:33:58;;;;;;;11.13;5.30;;;;;;;1.41;80.34;98794.50;4968644;28;107274;-74
2021/11/30 08:36:24;;;;;;;11.32;6.30;;;;;;;1.39;79.95;98792.00;4969026;28;106053;-74
2021/11/30 08:38:49;;;;;;;9.23;6.10;;;;;;;1.37;79.43;98778.22;4969242;28;106157;-75
2021/11/30 08:41:19;;;;;;;9.82;5.40;;;;;;;1.40;79.37;98783.19;4969555;28;107392;-76
2021/11/30 08:43:45;;;;;;;7.83;4.13;;;;;;;1.47;79.33;98778.19;4970160;28;105993;-75
2021/11/30 08:46:10;;;;;;;8.50;5.13;;;;;;;1.54;79.39;98773.97;4970302;28;106243;-72
2021/11/30 08:48:36;;;;;;;5.72;3.55;;;;;;;1.55;78.92;98775.63;4969801;28;106153;-73
2021/11/30 08:51:01;;;;;;;6.15;3.92;;;;;;;1.52;78.70;98778.56;4969265;28;106379;-70
2021/11/30 08:53:33;;;;;;;8.23;5.13;;;;;;;1.49;78.54;98779.69;4969642;28;106012;-76
2021/11/30 08:55:58;;;;;;;8.32;4.95;;;;;;;1.48;78.92;98766.72;4970439;28;106014;-70
2021/11/30 08:58:23;;;;;;;3.97;2.30;;;;;;;1.55;78.48;98767.75;4969211;28;106127;-76
2021/11/30 09:00:49;;;;;;;4.43;2.83;;;;;;;1.54;77.96;98758.22;4969104;28;106428;-73
2021/11/30 09:03:14;;;;;;;7.70;3.78;;;;;;;1.52;77.98;98762.81;4968830;28;106297;-68
2021/11/30 09:05:41;;;;;;;7.47;4.90;;;;;;;1.50;77.92;98744.59;4970617;28;105941;-68
2021/11/30 09:08:08;;;;;;;5.97;3.58;;;;;;;1.47;77.77;98738.81;4968748;28;106231;-73
2021/11/30 09:10:34;;;;;;;7.07;4.05;;;;;;;1.45;77.67;98730.25;4969361;28;107117;-71
2021/11/30 09:12:59;;;;;;;6.53;4.10;;;;;;;1.44;77.79;98723.38;4968773;28;105897;-68
2021/11/30 09:15:25;;;;;;;3.40;2.70;;;;;;;1.49;77.75;98713.22;4967857;28;106301;-73
2021/11/30 09:17:53;;;;;;;7.55;4.30;;;;;;;1.58;77.46;98696.59;4968706;28;106969;-71
2021/11/30 09:20:20;;;;;;;6.40;4.07;;;;;;;1.66;77.53;98699.28;4969288;28;105902;-72
2021/11/30 09:22:46;;;;;;;6.72;4.15;;;;;;;1.76;77.38;98678.22;4969445;28;106262;-74
2021/11/30 09:25:12;;;;;;;8.40;4.53;;;;;;;1.86;76.81;98686.84;4970368;28;106252;-82
2021/11/30 09:27:38;;;;;;;10.30;4.40;;;;;;;1.99;76.91;98669.88;4968043;28;105843;-67
2021/11/30 09:30:06;;;;;;;8.13;5.10;;;;;;;2.11;76.99;98659.94;4968907;28;106021;-76
2021/11/30 09:32:31;;;;;;;9.68;5.13;;;;;;;2.19;76.64;98641.63;4953159;28;106399;-69
2021/11/30 09:34:58;;;;;;;10.45;3.60;;;;;;;2.27;75.97;98632.94;4950348;28;106218;-69
2021/11/30 09:37:24;;;;;;;6.93;4.10;;;;;;;2.27;75.12;98628.53;4950098;28;106370;-70
2021/11/30 09:39:50;;;;;;;4.80;2.90;;;;;;;2.31;75.38;98621.97;4949688;28;106061;-68
2021/11/30 09:42:17;;;;;;;5.07;3.53;;;;;;;2.39;74.94;98615.94;4949386;28;106136;-67
2021/11/30 09:44:45;;;;;;;6.97;3.90;;;;;;;2.52;74.77;98610.25;4949834;28;105990;-67
2021/11/30 09:47:11;;;;;;;4.28;2.83;;;;;;;2.64;74.56;98595.84;4949605;28;106238;-68
2021/11/30 09:49:38;;;;;;;5.88;3.40;;;;;;;2.76;73.54;98600.81;4948647;28;106443;-67
2021/11/30 09:52:04;;;;;;;4.85;3.03;;;;;;;2.78;73.40;98577.81;4949397;28;106082;-67
2021/11/30 09:54:29;;;;;;;4.88;3.05;;;;;;;2.78;72.62;98568.13;4950501;28;105988;-67
2021/11/30 09:56:54;;;;;;;5.10;3.17;;;;;;;2.85;72.78;98561.22;4949617;28;106258;-67
2021/11/30 09:59:20;;;;;;;5.45;3.50;;;;;;;3.05;73.17;98553.88;4949338;28;105948;-67
2021/11/30 10:01:45;;;;;;;6.00;3.40;;;;;;;3.13;72.67;98544.34;4949180;28;106152;-67
2021/11/30 10:04:11;;;;;;;4.40;3.28;;;;;;;3.01;71.85;98535.94;4949962;28;106012;-68
2021/11/30 10:06:36;;;;;;;4.25;2.45;;;;;;;2.80;71.90;98523.25;4949280;28;106135;-67
2021/11/30 10:09:14;;;;;;;6.90;3.38;;;;;;;2.61;72.10;98509.41;4949179;28;105907;-66
2021/11/30 10:11:39;;;;;;;4.85;3.08;;;;;;;2.49;71.66;98500.19;4948562;28;105802;-67
2021/11/30 10:14:11;;;;;;;6.22;3.25;;;;;;;2.53;72.11;98512.03;4949074;28;105850;-67
2021/11/30 10:16:37;;;;;;;8.15;2.97;;;;;;;2.49;72.11;98502.81;4949134;28;106255;-67
2021/11/30 10:19:02;;;;;;;6.13;3.45;;;;;;;2.45;71.76;98488.34;4948782;28;105840;-67
2021/11/30 10:21:28;;;;;;;5.03;3.38;;;;;;;2.47;71.74;98481.09;4948038;28;106117;-67
2021/11/30 10:23:59;;;;;;;4.93;2.92;;;;;;;2.44;71.78;98473.53;4949344;28;105825;-66
2021/11/30 10:26:30;;;;;;;4.70;2.83;;;;;;;2.32;71.92;98452.81;4948590;28;105904;-67
2021/11/30 10:29:04;;;;;;;5.05;3.20;;;;;;;2.26;72.15;98439.50;4947990;28;106610;-65
2021/11/30 10:31:38;;;;;;;8.60;3.30;;;;;;;2.24;72.01;98429.13;4946272;28;106273;-65
2021/11/30 10:34:12;;;;;;;4.10;2.90;;;;;;;2.30;72.12;98448.72;4948837;28;106199;-65
2021/11/30 10:36:48;;;;;;;5.22;2.80;;;;;;;2.29;72.14;98415.53;4948446;28;106119;-66
2021/11/30 10:39:22;;;;;;;6.05;2.47;;;;;;;2.23;72.17;98393.34;4947480;28;106943;-66
2021/11/30 10:41:51;;;;;;;5.00;2.28;;;;;;;2.23;72.23;98372.31;4946581;28;105911;-67
2021/11/30 10:44:27;;;;;;;4.72;2.70;;;;;;;2.22;72.17;98370.69;4949018;28;106083;-67
2021/11/30 10:47:08;;;;;;;5.55;3.10;;;;;;;2.14;72.80;98360.97;4948362;28;106251;-67
2021/11/30 10:49:34;;;;;;;8.15;3.13;;;;;;;2.09;72.20;98372.94;4948255;28;106673;-66
2021/11/30 10:52:00;;;;;;;7.65;3.78;;;;;;;2.03;73.03;98343.69;4947937;28;105898;-68
2021/11/30 10:54:36;;;;;;;5.05;2.80;;;;;;;2.06;72.74;98339.13;4948698;28;106049;-67
2021/11/30 10:57:03;;;;;;;6.20;3.58;;;;;;;2.02;73.06;98331.56;4947906;28;105996;-64
2021/11/30 10:59:30;;;;;;;4.90;2.65;;;;;;;2.04;73.12;98323.53;4947441;28;105907;-66
2021/11/30 11:01:55;;;;;;;5.70;3.13;;;;;;;2.05;73.16;98305.94;4949055;28;105961;-70
2021/11/30 11:04:29;;;;;;;5.00;3.22;;;;;;;2.08;73.27;98305.63;4951854;28;106551;-68
2021/11/30 11:07:24;;;;;;;5.57;3.58;;;;;;;2.09;73.10;98294.13;4950699;28;106149;-69
2021/11/30 11:09:50;;;;;;;6.13;2.85;;;;;;;2.06;73.10;98297.91;4949746;28;105928;-69
2021/11/30 11:12:27;;;;;;;3.08;2.15;;;;;;;2.02;72.88;98289.56;4952154;28;106234;-67
2021/11/30 11:14:54;;;;;;;5.25;3.05;;;;;;;2.00;73.21;98286.25;4951082;28;106964;-65
2021/11/30 11:17:33;;;;;;;6.78;3.03;;;;;;;2.01;73.21;98276.59;4951342;28;105806;-67
2021/11/30 11:19:59;;;;;;;3.97;2.03;;;;;;;2.00;73.03;98273.13;4950978;28;106808;-69
2021/11/30 11:22:27;;;;;;;4.55;2.70;;;;;;;2.00;73.27;98259.19;4950840;28;106427;-68
2021/11/30 11:24:57;;;;;;;3.92;2.25;;;;;;;2.02;73.29;98258.03;4951740;28;106083;-68
2021/11/30 11:27:37;;;;;;;3.35;2.45;;;;;;;2.08;73.50;98237.31;4951442;28;105984;-70
2021/11/30 11:30:04;;;;;;;3.55;2.40;;;;;;;2.09;73.38;98233.72;4950487;28;106109;-69
2021/11/30 11:32:29;;;;;;;6.25;2.80;;;;;;;2.09;73.33;98226.69;4951068;28;105837;-70
2021/11/30 11:34:58;;;;;;;4.13;2.58;;;;;;;2.11;73.22;98223.88;4951732;28;106130;-71
2021/11/30 11:37:24;;;;;;;4.63;1.83;;;;;;;2.11;73.26;98216.00;4951033;28;105869;-70
2021/11/30 11:39:50;;;;;;;3.10;2.17;;;;;;;2.12;73.30;98199.25;4951211;28;106628;-75
2021/11/30 11:42:17;;;;;;;4.15;2.05;;;;;;;2.10;73.44;98190.72;4950585;28;106074;-66
2021/11/30 11:44:43;;;;;;;3.33;2.38;;;;;;;2.06;73.31;98178.91;4951393;28;106019;-72
2021/11/30 11:47:13;;;;;;;2.97;1.77;;;;;;;2.06;73.22;98200.72;4950496;28;106274;-69
2021/11/30 11:49:42;;;;;;;3.45;1.90;;;;;;;2.01;73.43;98177.59;4950240;28;106103;-67
2021/11/30 11:52:22;;;;;;;3.13;1.77;;;;;;;1.98;73.22;98177.09;4950278;28;106721;-72
2021/11/30 11:54:58;;;;;;;;;;;;;;;1.95;73.46;98178.22;4951912;28;105919;-71
2021/11/30 11:57:23;;;;;;;4.00;2.15;;;;;;;1.94;73.99;98165.28;4950748;28;106234;-68
2021/11/30 11:59:49;;;;;;;6.05;3.22;;;;;;;1.89;74.03;98157.06;4950793;28;105939;-74
2021/11/30 12:02:26;;;;;;;7.97;3.45;;;;;;;1.89;74.53;98141.31;4949859;28;105917;-77
2021/11/30 12:04:58;;;;;;;5.10;2.40;;;;;;;1.90;74.52;98128.03;4951650;28;105904;-74
2021/11/30 12:07:26;;;;;;;4.97;2.70;;;;;;;1.94;74.31;98134.59;4950696;28;106183;-74
2021/11/30 12:10:29;;;;;;;3.75;1.90;;;;;;;1.95;74.18;98125.72;4950228;28;106372;-73
2021/11/30 12:13:18;;;;;;;2.97;1.30;;;;;;;1.96;74.41;98108.97;4954427;28;106083;-74
2021/11/30 12:16:07;;;;;;;2.75;1.83;;;;;;;1.98;74.65;98120.16;4969850;28;105960;-76
2021/11/30 12:18:42;;;;;;;4.00;2.30;;;;;;;1.99;74.49;98097.31;4969787;28;106742;-76
2021/11/30 12:21:12;;;;;;;3.88;2.60;;;;;;;2.01;74.42;98092.75;4967813;28;106829;-74
2021/11/30 12:23:38;;;;;;;4.03;2.17;;;;;;;2.02;74.31;98092.56;4960973;28;106506;-75
2021/11/30 12:26:04;;;;;;;5.97;2.92;;;;;;;2.08;74.54;98098.94;4952023;28;106579;-72
2021/11/30 12:28:38;;;;;;;4.53;2.83;;;;;;;2.12;74.63;98078.41;4969841;28;105817;-72
2021/11/30 12:31:06;;;;;;;5.68;2.55;;;;;;;2.12;74.40;98070.53;4961927;28;107825;-75
2021/11/30 12:33:37;;;;;;;4.10;2.22;;;;;;;2.10;74.26;98069.88;4969448;28;106115;-72
2021/11/30 12:36:06;;;;;;;3.13;1.65;;;;;;;2.11;74.66;98056.59;4970526;28;105988;-72
2021/11/30 12:38:52;;;;;;;9.02;2.60;;;;;;;2.14;74.58;98066.75;4969340;28;106030;-72
2021/11/30 12:41:24;;;;;;;7.85;3.70;;;;;;;2.14;74.33;98064.13;4969656;28;105914;-73
2021/11/30 12:43:55;;;;;;;2.80;1.67;;;;;;;2.17;74.07;98061.19;4969642;28;106307;-76
2021/11/30 12:46:40;;;;;;;6.82;2.67;;;;;;;2.18;74.31;98044.41;4970434;28;105979;-75
2021/11/30 12:49:29;;;;;;;3.50;1.88;;;;;;;2.21;74.61;98051.13;4969723;28;106184;-73
2021/11/30 12:52:08;;;;;;;5.85;2.90;;;;;;;2.23;73.99;98037.81;4968826;28;106179;-74
2021/11/30 12:54:35;;;;;;;4.35;2.20;;;;;;;2.24;74.22;98052.59;4968675;28;106135;-72
2021/11/30 12:57:02;;;;;;;6.15;2.88;;;;;;;2.25;74.14;98034.03;4970209;28;105937;-73
2021/11/30 12:59:37;;;;;;;3.63;1.67;;;;;;;2.31;73.68;98036.00;4969220;28;105894;-72
2021/11/30 13:02:24;;;;;;;3.72;2.10;;;;;;;2.36;73.81;98031.06;4969044;28;106313;-74
2021/11/30 13:04:55;;;;;;;6.57;2.42;;;;;;;2.41;74.11;98035.00;4968037;28;106464;-73
2021/11/30 13:07:23;;;;;;;5.30;2.45;;;;;;;2.46;73.42;98030.00;4967565;28;106413;-71
2021/11/30 13:09:50;;;;;;;6.60;2.40;;;;;;;2.49;73.79;98045.47;4967074;28;106210;-73
2021/11/30 13:12:29;;;;;;;1.27;1.08;;;;;;;2.50;73.26;98033.94;4965043;28;106810;-70
2021/11/30 13:14:56;;;;;;;3.38;1.58;;;;;;;2.50;73.44;98028.69;4966086;28;106094;-72
2021/11/30 13:17:28;;;;;;;3.28;2.22;;;;;;;2.47;73.44;98037.72;4967451;28;105984;-70
2021/11/30 13:19:54;;;;;;;2.80;1.60;;;;;;;2.47;73.45;98035.09;4966474;28;106504;-69
2021/11/30 13:22:20;;;;;;;4.00;1.60;;;;;;;2.46;73.65;98030.84;4968327;28;105949;-69
2021/11/30 13:24:49;;;;;;;4.22;1.52;;;;;;;2.45;73.75;98025.78;4967974;28;106050;-73
2021/11/30 13:27:19;;;;;;;4.55;2.50;;;;;;;2.42;73.68;98023.47;4968972;28;106102;-71
2021/11/30 13:30:03;;;;;;;5.90;2.55;;;;;;;2.39;73.67;98021.19;4968345;28;106296;-72
2021/11/30 13:32:32;;;;;;;9.27;3.28;;;;;;;2.34;74.02;98025.16;4968219;28;106060;-72
2021/11/30 13:35:12;;;;;;;4.45;1.73;;;;;;;2.39;74.18;98013.31;4968001;28;106115;-72
2021/11/30 13:37:41;;;;;;;3.25;1.63;;;;;;;2.38;74.46;98012.50;4969161;28;105902;-77
2021/11/30 13:40:10;;;;;;;4.68;1.70;;;;;;;2.35;74.19;98016.28;4968630;28;106333;-72
2021/11/30 13:42:51;;;;;;;5.20;2.15;;;;;;;2.37;74.07;98024.00;4968204;28;106017;-74
2021/11/30 13:45:18;;;;;;;10.23;3.60;;;;;;;2.35;74.49;98011.03;4968348;28;105959;-72
2021/11/30 13:47:48;;;;;;;8.30;3.60;;;;;;;2.36;74.28;98022.34;4969290;28;105841;-69
2021/11/30 13:50:15;;;;;;;6.70;2.25;;;;;;;2.35;74.27;98021.53;4968705;28;105969;-72
2021/11/30 13:52:41;;;;;;;8.10;2.70;;;;;;;2.34;74.17;98022.53;4968318;28;106544;-69
2021/11/30 13:55:06;;;;;;;4.38;2.10;;;;;;;2.33;74.38;98020.88;4968437;28;106075;-76
2021/11/30 13:57:33;;;;;;;4.80;2.08;;;;;;;2.33;74.76;98012.19;4965029;28;106135;-69
2021/11/30 14:00:02;;;;;;;10.13;3.25;;;;;;;2.32;74.61;98008.75;4967414;28;106260;-75
2021/11/30 14:02:43;;;;;;;4.43;2.30;;;;;;;2.28;74.41;98009.25;4966489;28;106174;-70
2021/11/30 14:05:12;;;;;;;4.03;2.30;;;;;;;2.26;74.66;98011.22;4966917;28;106134;-67
2021/11/30 14:50:47;;;;;;;4.38;1.95;;;;;;;1.71;76.56;97971.69;4984844;28;106094;-71
2021/11/30 14:53:42;;;;;;;6.05;3.13;;;;;;;1.76;77.01;97955.44;4981524;28;106089;-73
2021/11/30 14:56:32;;;;;;;6.47;3.00;;;;;;;1.85;77.24;97957.03;4982627;28;105984;-81
2021/11/30 14:59:03;;;;;;;4.30;2.45;;;;;;;1.99;77.83;97960.75;4984657;28;106047;-79
2021/11/30 15:01:33;;;;;;;2.63;1.95;;;;;;;2.14;78.19;97955.63;4982133;28;106182;-75
2021/11/30 15:04:01;;;;;;;3.10;1.57;;;;;;;2.37;78.73;97951.22;4976583;28;106242;-69
2021/11/30 15:06:30;;;;;;;5.25;1.95;;;;;;;2.59;78.30;97959.31;4973844;28;106195;-71
2021/11/30 15:09:04;;;;;;;3.25;1.80;;;;;;;2.78;78.09;97955.41;4975179;28;106910;-73
2021/11/30 15:11:37;;;;;;;3.35;1.20;;;;;;;2.93;77.86;97950.22;4973995;28;106135;-72
2021/11/30 15:14:13;;;;;;;4.47;2.33;;;;;;;3.07;78.05;97971.47;4982261;28;106152;-71
2021/11/30 15:16:40;;;;;;;4.75;1.95;;;;;;;3.17;78.01;97958.88;4984602;28;105896;-70
2021/11/30 15:19:27;;;;;;;4.20;1.63;;;;;;;3.26;77.88;97963.09;4984059;28;106625;-70
2021/11/30 15:21:55;;;;;;;3.38;1.63;;;;;;;3.35;77.56;97969.91;4984913;28;106110;-72
2021/11/30 15:24:25;;;;;;;2.10;1.02;;;;;;;3.43;77.41;97945.34;4986970;28;107269;-75
2021/11/30 15:26:52;;;;;;;2.55;1.30;;;;;;;3.50;77.15;97955.94;4986117;28;106142;-76
2021/11/30 15:29:21;;;;;;;2.40;1.40;;;;;;;3.55;76.99;97953.59;5000748;28;107259;-76
2021/11/30 15:31:48;;;;;;;7.70;2.40;;;;;;;3.60;76.82;97969.69;4990967;28;106494;-71
2021/11/30 15:34:14;;;;;;;7.53;3.95;;;;;;;3.63;77.09;97971.94;4995204;28;106058;-75
2021/11/30 15:36:41;;;;;;;6.68;2.83;;;;;;;3.68;76.77;97953.00;4998309;28;106225;-81
2021/11/30 15:39:08;;;;;;;5.93;2.53;;;;;;;3.71;76.82;97977.13;4987889;28;106442;-78
2021/11/30 15:41:35;;;;;;;2.47;1.20;;;;;;;3.73;76.63;97967.25;5000398;28;106018;-80
2021/11/30 15:44:01;;;;;;;3.95;1.25;;;;;;;3.73;76.68;97967.25;4994443;28;105859;-84
2021/11/30 15:46:26;;;;;;;1.67;1.20;;;;;;;3.72;76.25;97955.06;4991353;28;106201;-82
2021/11/30 15:48:52;;;;;;;2.25;1.13;;;;;;;3.70;76.69;97957.09;4999397;28;106394;-73
2021/11/30 15:51:22;;;;;;;2.63;1.45;;;;;;;3.69;76.58;97973.03;4987303;28;106663;-74
2021/11/30 15:53:48;;;;;;;2.47;1.50;;;;;;;3.65;76.54;97954.16;4999245;28;106041;-84
2021/11/30 15:58:58;;;;;;;3.33;1.25;;;;;;;3.66;76.72;97955.81;4989636;28;106020;-72
2021/11/30 16:01:23;;;;;;;2.53;1.60;;;;;;;3.65;76.65;97954.16;4992376;28;105820;-85
2021/11/30 16:03:49;;;;;;;2.92;1.63;;;;;;;3.67;76.89;97951.34;4973856;28;106411;-82
2021/11/30 16:06:14;;;;;;;2.08;1.20;;;;;;;3.69;76.60;97970.41;4981330;28;106178;-70
2021/11/30 16:08:40;;;;;;;3.95;1.55;;;;;;;3.70;76.92;97969.41;4977197;28;106056;-74
2021/11/30 16:11:06;;;;;;;3.00;1.25;;;;;;;3.72;76.89;97970.06;4987225;28;106021;-74
2021/11/30 16:13:31;;;;;;;2.83;1.42;;;;;;;3.72;76.90;97970.88;4975948;28;106350;-75
2021/11/30 16:15:57;;;;;;;3.08;1.52;;;;;;;3.73;76.54;97966.41;4983308;28;105988;-73
2021/11/30 16:18:22;;;;;;;4.38;2.10;;;;;;;3.71;76.66;97974.50;4982146;28;105941;-77
2021/11/30 16:20:48;;;;;;;6.30;2.40;;;;;;;3.71;76.71;97986.84;4976184;28;106089;-81
2021/11/30 16:23:13;;;;;;;4.50;2.17;;;;;;;3.71;77.09;97979.75;4988006;28;105835;-76
2021/11/30 16:25:38;;;;;;;6.13;2.50;;;;;;;3.69;76.84;97987.03;4976707;28;106205;-73
2021/11/30 16:28:04;;;;;;;4.88;2.28;;;;;;;3.69;77.14;97997.56;4980502;28;107555;-79
2021/11/30 16:30:29;;;;;;;3.55;1.50;;;;;;;3.70;76.82;97996.59;4982966;28;106043;-80
2021/11/30 16:32:55;;;;;;;3.08;1.80;;;;;;;3.70;77.13;98011.56;4975456;28;105915;-70
2021/11/30 16:35:21;;;;;;;3.90;2.30;;;;;;;3.69;77.30;98008.09;4987052;28;106011;-69
2021/11/30 16:37:46;;;;;;;3.65;1.70;;;;;;;3.65;77.52;98009.47;4976571;28;106535;-71
2021/11/30 16:40:12;;;;;;;8.05;2.50;;;;;;;3.63;77.38;98008.00;4975523;28;106670;-67
2021/11/30 16:42:38;;;;;;;5.18;2.38;;;;;;;3.62;77.36;98012.44;4968918;28;105985;-70
2021/11/30 16:45:03;;;;;;;4.43;2.28;;;;;;;3.60;77.70;98013.63;4970458;28;106150;-72
2021/11/30 16:47:29;;;;;;;3.65;2.20;;;;;;;3.57;77.35;98004.28;4969992;28;105902;-70
2021/11/30 16:49:55;;;;;;;4.43;1.80;;;;;;;3.54;77.31;97997.56;4969659;28;106054;-71
2021/11/30 16:52:20;;;;;;;4.22;2.30;;;;;;;3.49;77.74;98001.72;4970997;28;105957;-69
2021/11/30 16:54:45;;;;;;;3.45;1.75;;;;;;;3.49;77.77;97996.47;4970528;28;105915;-68
2021/11/30 16:57:11;;;;;;;4.28;1.90;;;;;;;3.48;78.18;98013.25;4970080;28;105992;-72
2021/11/30 16:59:37;;;;;;;4.47;2.85;;;;;;;3.46;78.00;98002.06;4969807;28;105993;-67
2021/11/30 17:02:03;;;;;;;3.33;1.85;;;;;;;3.43;77.94;97991.88;4970600;28;106332;-71
2021/11/30 17:04:28;;;;;;;5.78;2.58;;;;;;;3.38;78.00;98008.22;4970129;28;106214;-71
2021/11/30 17:06:54;;;;;;;4.00;2.00;;;;;;;3.37;78.05;98006.59;4969996;28;106169;-68
2021/11/30 17:09:26;;;;;;;5.30;2.20;;;;;;;3.34;78.27;98014.84;4969921;28;106357;-72
2021/11/30 17:11:53;;;;;;;6.68;4.00;;;;;;;3.34;78.47;98013.03;4970255;28;106008;-70
2021/11/30 17:14:19;;;;;;;5.80;2.38;;;;;;;3.33;78.57;98003.47;4969556;28;106000;-70
2021/11/30 17:16:44;;;;;;;6.80;3.53;;;;;;;3.31;78.60;98010.75;4969959;28;105854;-73
2021/11/30 17:19:10;;;;;;;4.18;1.80;;;;;;;3.30;78.73;97998.56;4969955;28;105827;-70
2021/11/30 17:21:40;;;;;;;5.63;2.20;;;;;;;3.33;78.69;98005.31;4970518;28;105762;-69
2021/11/30 17:24:07;;;;;;;4.05;2.50;;;;;;;3.32;78.75;98001.88;4970260;28;106282;-70
2021/11/30 17:26:32;;;;;;;5.63;3.15;;;;;;;3.31;78.31;98013.38;4969801;28;106056;-72
2021/11/30 17:29:04;;;;;;;3.17;2.38;;;;;;;3.30;78.93;98021.47;4969884;28;106007;-72
2021/11/30 17:31:31;;;;;;;5.75;2.55;;;;;;;3.28;78.43;98018.16;4970807;28;105890;-72
2021/11/30 17:33:57;;;;;;;4.75;2.05;;;;;;;3.23;78.33;98021.34;4968991;28;106201;-71
2021/11/30 17:36:22;;;;;;;5.03;2.63;;;;;;;3.19;78.64;98023.50;4969335;28;106648;-73
2021/11/30 17:38:48;;;;;;;6.70;2.08;;;;;;;3.18;78.37;98021.03;4969183;28;106045;-74
2021/11/30 17:41:13;;;;;;;5.55;2.30;;;;;;;3.15;78.07;98037.19;4970071;28;105823;-74
2021/11/30 17:43:39;;;;;;;6.43;2.40;;;;;;;3.13;78.39;98034.75;4969454;28;105842;-73
2021/11/30 17:46:06;;;;;;;5.20;2.15;;;;;;;3.13;78.71;98037.38;4969358;28;106295;-75
2021/11/30 17:48:34;;;;;;;5.45;1.80;;;;;;;3.12;78.37;98032.28;4969288;28;106092;-73
2021/11/30 17:51:00;;;;;;;7.78;2.33;;;;;;;3.10;78.43;98029.81;4970502;28;105950;-74
2021/11/30 17:53:26;;;;;;;6.82;2.83;;;;;;;3.08;78.17;98036.25;4969764;28;105961;-74
2021/11/30 17:55:51;;;;;;;6.18;2.25;;;;;;;3.04;78.33;98041.03;4968972;28;105919;-70
2021/11/30 17:58:17;;;;;;;9.85;1.80;;;;;;;3.05;78.66;98030.34;4969386;28;106030;-73
2021/11/30 18:00:42;;;;;;;5.53;1.75;;;;;;;3.08;78.74;98033.63;4970420;28;105968;-75
2021/11/30 18:03:07;;;;;;;4.40;1.75;;;;;;;3.10;78.55;98047.41;4969456;28;106205;-70
2021/11/30 18:05:33;;;;;;;4.50;1.25;;;;;;;3.10;78.14;98045.59;4969222;28;105723;-71
2021/11/30 18:07:58;;;;;;;6.25;1.73;;;;;;;3.08;78.65;98042.34;4969170;28;105793;-75
2021/11/30 18:10:26;;;;;;;6.75;1.85;;;;;;;3.03;78.13;98039.41;4969776;28;105928;-73
2021/11/30 18:12:54;;;;;;;8.93;2.65;;;;;;;2.99;77.84;98031.06;4969158;28;106375;-73
2021/11/30 18:15:20;;;;;;;6.68;2.03;;;;;;;2.94;77.90;98058.84;4969414;28;107194;-72
2021/11/30 18:17:46;;;;;;;8.93;2.63;;;;;;;2.89;77.69;98069.91;4968925;28;106312;-73
2021/11/30 18:20:11;;;;;;;7.93;2.60;;;;;;;2.85;77.89;98061.53;4969728;28;105952;-72
2021/11/30 18:22:37;;;;;;;12.43;3.47;;;;;;;2.84;77.92;98082.75;4969091;28;105968;-72
2021/11/30 18:25:07;;;;;;;10.13;2.92;;;;;;;2.79;78.27;98080.66;4968730;28;106389;-72
2021/11/30 18:27:34;;;;;;;6.88;2.38;;;;;;;2.77;78.16;98084.44;4966848;28;106428;-74
2021/11/30 18:29:59;;;;;;;8.55;2.95;;;;;;;2.80;78.49;98089.34;4969747;28;105923;-72
2021/11/30 18:32:24;;;;;;;9.05;3.15;;;;;;;2.87;78.92;98106.06;4968989;28;106233;-71
2021/11/30 18:34:51;;;;;;;9.70;3.22;;;;;;;2.93;79.01;98108.00;4968969;28;106012;-74
2021/11/30 18:37:17;;;;;;;6.07;2.53;;;;;;;2.99;78.40;98103.88;4969056;28;106530;-71
2021/11/30 18:39:42;;;;;;;4.88;2.25;;;;;;;3.07;78.73;98114.34;4969856;28;105789;-71